Time;durP1;ratioP1;P1;durP2;ratioP2;P2;SDS_P1;SDS_P2;PMS_P1;PMS_P2;Temp;Humidity;BMP_temperature;BMP_pressure;BME280_temperature;BME280_humidity;BME280_pressure;Samples;Min_cycle;Max_cycle;Signal;HPM_P1;HPM_P2
2023/06/03 00:05:21;;;;;;;9.40;4.70;;;;;;;8.56;82.44;99447.67;273460;1266;22198;-83
2023/06/03 00:11:21;;;;;;;7.20;3.50;;;;;;;8.46;82.84;99452.07;273525;1267;23267;-83
2023/06/03 00:17:26;;;;;;;8.50;3.80;;;;;;;8.30;83.08;99455.13;273410;1267;22426;-84
2023/06/03 00:23:27;;;;;;;7.40;4.60;;;;;;;8.12;83.31;99451.58;273448;1267;22498;-82
2023/06/03 00:29:28;;;;;;;8.00;4.70;;;;;;;7.96;83.32;99456.05;273225;1267;23298;-83
2023/06/03 00:35:30;;;;;;;8.00;5.10;;;;;;;7.83;83.71;99454.71;273375;1267;23505;-82
2023/06/03 00:41:30;;;;;;;9.70;4.70;;;;;;;7.72;84.16;99457.73;273324;1251;91017;-83
2023/06/03 00:47:31;;;;;;;9.40;4.90;;;;;;;7.62;84.44;99461.80;273060;1267;22385;-83
2023/06/03 00:53:32;;;;;;;9.90;5.60;;;;;;;7.52;84.68;99460.88;273258;1267;22400;-83
2023/06/03 00:59:34;;;;;;;11.80;6.10;;;;;;;7.41;84.69;99467.69;273161;1267;22170;-84
2023/06/03 01:05:35;;;;;;;8.80;5.80;;;;;;;7.30;84.81;99475.59;273439;1267;23685;-82
2023/06/03 01:12:20;;;;;;;7.90;5.30;;;;;;;7.22;85.23;99481.02;273509;1266;22369;-83
2023/06/03 01:18:23;;;;;;;9.60;5.50;;;;;;;7.18;85.78;99474.36;272485;1267;22620;-85
2023/06/03 01:24:24;;;;;;;7.90;5.30;;;;;;;7.11;86.00;99475.16;272460;1267;22510;-83
2023/06/03 01:30:25;;;;;;;9.50;5.50;;;;;;;7.00;86.28;99476.64;271930;1254;23905;-83
2023/06/03 01:36:26;;;;;;;15.30;6.90;;;;;;;6.89;86.23;99480.73;273397;1258;22459;-83
2023/06/03 01:42:27;;;;;;;14.70;6.50;;;;;;;6.73;86.60;99494.92;272368;1266;22406;-83
2023/06/03 01:48:28;;;;;;;13.60;7.20;;;;;;;6.62;86.74;99503.58;272408;1254;22446;-83
2023/06/03 01:54:29;;;;;;;12.80;6.40;;;;;;;6.50;86.59;99506.89;272372;1267;22442;-83
2023/06/03 02:00:30;;;;;;;12.60;6.40;;;;;;;6.41;86.78;99508.29;273302;1267;22214;-83
2023/06/03 02:06:31;;;;;;;9.90;6.40;;;;;;;6.34;87.28;99504.48;273291;1266;22408;-83
2023/06/03 02:12:33;;;;;;;12.10;6.60;;;;;;;6.30;87.49;99506.60;273347;1257;22468;-83
2023/06/03 02:18:34;;;;;;;10.50;6.60;;;;;;;6.27;88.21;99505.08;273462;1267;22420;-82
2023/06/03 02:24:38;;;;;;;13.20;6.70;;;;;;;6.30;88.44;99508.81;272667;1267;23035;-84
2023/06/03 02:30:38;;;;;;;12.90;7.50;;;;;;;6.20;87.96;99513.73;271955;1265;22501;-83
2023/06/03 02:36:40;;;;;;;8.80;5.90;;;;;;;6.14;88.47;99520.59;272570;1257;22270;-82
2023/06/03 02:42:41;;;;;;;11.80;6.80;;;;;;;6.09;88.75;99530.36;273376;1267;22479;-82
2023/06/03 02:48:42;;;;;;;13.90;7.10;;;;;;;6.05;88.65;99531.92;273375;1261;22424;-82
2023/06/03 02:54:43;;;;;;;13.10;7.10;;;;;;;6.01;88.77;99533.23;273295;1267;23436;-82
2023/06/03 03:00:44;;;;;;;9.40;6.20;;;;;;;5.97;88.98;99531.52;273360;1252;22452;-82
2023/06/03 03:06:45;;;;;;;8.40;5.70;;;;;;;5.94;89.55;99533.99;273263;1267;22497;-82
2023/06/03 03:12:46;;;;;;;11.20;6.80;;;;;;;5.92;89.37;99547.33;273563;1261;23939;-82
2023/06/03 03:18:47;;;;;;;11.80;6.80;;;;;;;5.83;89.60;99555.06;273302;1257;22190;-83
2023/06/03 03:24:50;;;;;;;10.90;6.90;;;;;;;5.85;90.02;99554.67;273318;1267;22470;-83
2023/06/03 03:31:14;;;;;;;10.10;5.80;;;;;;;5.89;90.26;99562.98;273286;1267;22396;-83
2023/06/03 03:37:15;;;;;;;9.30;6.10;;;;;;;6.00;90.89;99564.16;272924;1259;22394;-83
2023/06/03 03:43:19;;;;;;;10.30;6.90;;;;;;;6.15;91.59;99573.90;273113;1266;22403;-84
2023/06/03 03:49:27;;;;;;;9.50;5.70;;;;;;;6.28;92.12;99575.41;272474;1267;22510;-82
2023/06/03 03:55:29;;;;;;;11.10;6.50;;;;;;;6.42;92.68;99577.77;272713;1266;23248;-84
2023/06/03 04:01:31;;;;;;;12.70;7.10;;;;;;;6.60;93.57;99582.17;273281;1267;22268;-82
2023/06/03 04:07:36;;;;;;;9.00;6.90;;;;;;;6.86;94.06;99578.52;273230;1254;22456;-82
2023/06/03 04:13:40;;;;;;;10.50;7.10;;;;;;;7.11;94.50;99583.80;273191;1266;22471;-85
2023/06/03 04:19:41;;;;;;;11.00;6.90;;;;;;;7.37;95.20;99584.54;273086;1267;23835;-83
2023/06/03 04:25:48;;;;;;;15.20;8.20;;;;;;;7.61;95.45;99586.88;273027;1260;22916;-84
2023/06/03 04:31:49;;;;;;;16.60;9.90;;;;;;;7.86;95.79;99595.69;273294;1267;22490;-83
2023/06/03 04:37:52;;;;;;;17.40;12.00;;;;;;;8.12;95.58;99598.23;273461;1267;23324;-85
2023/06/03 04:44:33;;;;;;;21.80;14.30;;;;;;;8.40;95.30;99602.20;273141;1260;22249;-83
2023/06/03 04:50:35;;;;;;;14.80;11.80;;;;;;;8.66;94.52;99605.21;273015;1266;22568;-83
2023/06/03 04:56:39;;;;;;;14.80;9.00;;;;;;;8.91;94.78;99610.12;272279;1266;22555;-85
2023/06/03 05:02:44;;;;;;;17.40;9.80;;;;;;;9.11;94.32;99612.30;271820;1267;23738;-83
2023/06/03 05:08:47;;;;;;;17.60;9.10;;;;;;;9.27;93.64;99614.90;272401;1266;22370;-84
2023/06/03 05:14:49;;;;;;;17.90;11.30;;;;;;;9.41;93.35;99625.81;272764;1259;22427;-84
2023/06/03 05:20:51;;;;;;;19.50;11.80;;;;;;;9.53;92.93;99629.48;273171;1267;22529;-85
2023/06/03 05:26:51;;;;;;;22.30;12.50;;;;;;;9.71;93.15;99634.44;272867;1266;22419;-83
2023/06/03 05:32:52;;;;;;;21.50;12.00;;;;;;;9.96;93.53;99630.85;272921;1266;22456;-83
2023/06/03 05:38:53;;;;;;;18.70;10.70;;;;;;;10.23;93.00;99634.55;273479;1258;22453;-83
2023/06/03 05:44:55;;;;;;;16.70;10.80;;;;;;;10.42;92.59;99639.10;273610;1266;23339;-83
2023/06/03 05:50:56;;;;;;;13.00;8.80;;;;;;;10.38;91.74;99639.41;273299;1262;22581;-83
2023/06/03 05:57:00;;;;;;;18.00;8.90;;;;;;;10.41;91.94;99642.30;272956;1267;22459;-83
2023/06/03 06:03:03;;;;;;;13.90;7.50;;;;;;;10.60;92.07;99644.12;273293;1260;23025;-84
2023/06/03 06:09:04;;;;;;;10.40;7.00;;;;;;;10.74;91.45;99646.29;273272;1262;22448;-81
2023/06/03 06:15:07;;;;;;;12.10;6.90;;;;;;;10.91;91.23;99642.94;273215;1266;23838;-81
2023/06/03 06:21:08;;;;;;;12.60;7.30;;;;;;;11.08;90.92;99648.30;273332;1266;22461;-82
2023/06/03 06:27:11;;;;;;;10.70;6.40;;;;;;;11.22;90.59;99657.08;273353;1257;22932;-83
2023/06/03 06:33:16;;;;;;;11.20;6.10;;;;;;;11.37;90.04;99657.69;273327;1267;22927;-82
2023/06/03 06:39:33;;;;;;;7.50;4.90;;;;;;;11.60;89.57;99654.52;273200;1264;22562;-81
2023/06/03 06:45:35;;;;;;;8.00;4.80;;;;;;;11.94;89.06;99652.99;273531;1267;22195;-84
2023/06/03 06:51:37;;;;;;;8.30;5.60;;;;;;;12.29;87.94;99652.50;273441;1267;22279;-84
2023/06/03 06:57:39;;;;;;;9.20;4.80;;;;;;;12.65;87.27;99651.98;273584;1267;22378;-84
2023/06/03 07:03:40;;;;;;;6.80;4.60;;;;;;;13.36;86.87;99650.27;273212;1255;22604;-84
2023/06/03 07:09:43;;;;;;;6.50;3.90;;;;;;;13.79;85.06;99651.39;273195;1266;22365;-83
2023/06/03 07:15:50;;;;;;;12.50;4.10;;;;;;;14.14;84.06;99654.98;273341;1258;22392;-84
2023/06/03 07:21:52;;;;;;;7.00;4.30;;;;;;;14.14;82.64;99659.14;273356;1267;22389;-82
2023/06/03 07:27:54;;;;;;;8.30;4.20;;;;;;;14.28;82.67;99660.02;273193;1267;23436;-82
2023/06/03 07:33:56;;;;;;;9.10;4.00;;;;;;;14.19;80.86;99663.03;272898;1266;22544;-82
2023/06/03 07:40:15;;;;;;;8.80;4.60;;;;;;;14.00;78.93;99669.64;272369;1258;22346;-83
2023/06/03 07:46:21;;;;;;;9.60;4.00;;;;;;;14.28;78.41;99670.83;272633;1266;23593;-83
2023/06/03 07:52:23;;;;;;;11.90;4.40;;;;;;;14.50;77.94;99669.24;273243;1258;22420;-85
2023/06/03 07:58:24;;;;;;;5.50;3.20;;;;;;;14.79;76.46;99677.27;273055;1259;22445;-83
2023/06/03 08:04:30;;;;;;;8.40;3.20;;;;;;;14.71;74.56;99679.36;273093;1255;22462;-83
2023/06/03 08:10:34;;;;;;;5.00;3.20;;;;;;;14.52;74.33;99675.79;273097;1255;22460;-83
2023/06/03 08:16:35;;;;;;;6.30;2.40;;;;;;;15.02;74.25;99679.65;273065;1267;23682;-82
2023/06/03 08:22:43;;;;;;;6.10;2.50;;;;;;;15.50;69.32;99684.19;273513;1267;23127;-83
2023/06/03 08:28:44;;;;;;;4.50;2.50;;;;;;;15.56;68.42;99687.98;273284;1266;22381;-82
2023/06/03 08:34:46;;;;;;;5.30;2.80;;;;;;;15.78;67.42;99686.29;273683;1266;22612;-83
2023/06/03 08:40:49;;;;;;;4.40;2.10;;;;;;;15.92;65.83;99686.06;273640;1267;22238;-83
2023/06/03 08:47:09;;;;;;;5.90;2.10;;;;;;;16.00;64.63;99690.72;272167;1266;22853;-83
2023/06/03 08:53:11;;;;;;;6.50;1.90;;;;;;;16.03;62.52;99695.38;273078;1267;22514;-83
2023/06/03 08:59:19;;;;;;;6.50;2.50;;;;;;;16.21;62.93;99694.83;273526;1267;23165;-83
2023/06/03 09:05:20;;;;;;;3.30;1.40;;;;;;;16.49;61.60;99690.17;273324;1268;23506;-81
2023/06/03 09:11:22;;;;;;;7.90;1.70;;;;;;;16.40;58.20;99696.16;273327;1268;22381;-82
2023/06/03 09:17:24;;;;;;;4.20;1.90;;;;;;;16.27;57.32;99687.48;272500;1267;22551;-82
2023/06/03 09:23:27;;;;;;;3.80;1.50;;;;;;;16.66;56.30;99680.09;272298;1266;23511;-83
2023/06/03 09:29:28;;;;;;;3.70;1.70;;;;;;;16.64;54.28;99678.29;273011;1258;22410;-83
2023/06/03 09:35:29;;;;;;;5.20;1.80;;;;;;;16.90;54.41;99671.73;273430;1258;22380;-83
2023/06/03 09:41:50;;;;;;;6.30;2.00;;;;;;;17.43;53.98;99671.83;273466;1265;22435;-83
2023/06/03 09:47:52;;;;;;;3.20;1.20;;;;;;;17.85;53.12;99670.29;273567;1268;22384;-83
2023/06/03 09:54:08;;;;;;;6.40;1.20;;;;;;;18.13;52.39;99658.57;272981;1258;22507;-84
2023/06/03 10:00:11;;;;;;;3.80;1.30;;;;;;;18.71;51.57;99658.57;272659;1266;23494;-83
2023/06/03 10:06:21;;;;;;;6.90;1.60;;;;;;;19.03;50.02;99655.66;273129;1266;22465;-84
2023/06/03 10:12:29;;;;;;;8.90;1.40;;;;;;;18.96;49.43;99658.14;273584;1267;22709;-85
2023/06/03 10:18:38;;;;;;;7.10;1.40;;;;;;;19.13;48.41;99653.08;273580;1266;22361;-84
2023/06/03 10:24:42;;;;;;;4.80;1.60;;;;;;;19.33;48.24;99650.14;273643;1267;22566;-85
2023/06/03 10:30:44;;;;;;;2.50;1.10;;;;;;;19.42;46.38;99648.91;273486;1258;23313;-84
2023/06/03 10:36:53;;;;;;;4.60;1.60;;;;;;;19.17;45.42;99635.91;273122;1259;22940;-83
2023/06/03 10:42:55;;;;;;;2.10;1.40;;;;;;;19.21;45.47;99634.17;273476;1266;23360;-83
2023/06/03 10:48:56;;;;;;;4.40;1.30;;;;;;;19.32;44.68;99639.21;273339;1266;23284;-84
2023/06/03 10:55:07;;;;;;;6.40;1.30;;;;;;;19.39;44.29;99624.98;273341;1266;23380;-83
2023/06/03 11:01:08;;;;;;;6.40;1.30;;;;;;;19.58;43.30;99622.73;273398;1266;24321;-84
2023/06/03 11:07:54;;;;;;;3.60;1.30;;;;;;;19.82;43.28;99624.01;272291;1266;23690;-84
2023/06/03 11:13:55;;;;;;;3.80;1.20;;;;;;;20.11;42.83;99617.66;272738;1267;22728;-84
2023/06/03 11:19:57;;;;;;;2.60;1.20;;;;;;;20.39;42.47;99610.27;271647;1266;22510;-83
2023/06/03 11:26:35;;;;;;;1.90;0.90;;;;;;;20.46;41.44;99614.59;272680;1267;22549;-85
2023/06/03 11:32:37;;;;;;;2.00;1.10;;;;;;;20.53;40.27;99609.20;272694;1265;22229;-85
2023/06/03 11:38:57;;;;;;;4.30;1.30;;;;;;;20.85;40.24;99607.52;273177;1256;22396;-86
2023/06/03 11:45:16;;;;;;;5.70;1.10;;;;;;;21.24;40.31;99602.98;273141;1267;22563;-84
2023/06/03 11:51:26;;;;;;;2.20;1.30;;;;;;;21.14;38.65;99607.89;273306;1259;22510;-84
2023/06/03 11:57:33;;;;;;;3.70;0.90;;;;;;;20.99;38.30;99601.74;273422;1266;22305;-85
2023/06/03 12:03:36;;;;;;;3.00;0.80;;;;;;;21.19;38.49;99603.77;273493;1266;22448;-83
2023/06/03 12:09:39;;;;;;;4.50;1.30;;;;;;;20.68;37.11;99598.00;273258;1259;22323;-84
2023/06/03 12:15:47;;;;;;;3.60;1.00;;;;;;;20.31;37.43;99595.73;272892;1267;22998;-84
2023/06/03 12:22:24;;;;;;;5.10;1.40;;;;;;;20.10;37.59;99591.23;273162;1269;22354;-85
2023/06/03 12:28:28;;;;;;;1.90;0.80;;;;;;;19.85;37.57;99587.92;273371;1267;22930;-86
2023/06/03 12:34:34;;;;;;;3.10;1.30;;;;;;;19.64;37.09;99588.34;273204;1266;22489;-82
2023/06/03 12:40:53;;;;;;;3.30;1.00;;;;;;;19.15;36.79;99590.59;272825;1267;181902;-86
2023/06/03 12:47:02;;;;;;;12.10;1.40;;;;;;;18.84;36.88;99572.52;272740;1267;22402;-86
2023/06/03 12:53:14;;;;;;;5.00;1.20;;;;;;;18.70;36.81;99570.71;273156;1267;22444;-85
2023/06/03 12:59:14;;;;;;;3.10;1.10;;;;;;;18.58;36.73;99570.08;273478;1268;22540;-83
2023/06/03 13:05:16;;;;;;;2.30;1.10;;;;;;;18.46;36.86;99562.70;273246;1267;22470;-84
2023/06/03 13:11:21;;;;;;;2.30;1.20;;;;;;;18.51;37.37;99556.78;273171;1257;23939;-84
2023/06/03 13:17:22;;;;;;;1.80;1.10;;;;;;;18.49;37.43;99553.70;273330;1259;23242;-84
2023/06/03 13:23:23;;;;;;;3.60;0.80;;;;;;;18.47;37.98;99554.27;273324;1251;22509;-84
2023/06/03 13:29:25;;;;;;;3.60;1.10;;;;;;;18.46;38.02;99552.08;273234;1266;22377;-83
2023/06/03 13:35:26;;;;;;;8.10;1.20;;;;;;;18.39;37.97;99545.27;273360;1268;22417;-83
2023/06/03 13:41:27;;;;;;;2.60;1.00;;;;;;;18.32;37.91;99541.21;273324;1267;22319;-83
2023/06/03 13:47:28;;;;;;;2.90;1.30;;;;;;;18.34;38.00;99533.04;273246;1266;22513;-84
2023/06/03 13:53:45;;;;;;;2.00;1.10;;;;;;;18.38;37.66;99531.49;273092;1258;22449;-84
2023/06/03 13:59:46;;;;;;;5.40;1.00;;;;;;;18.27;37.93;99529.39;273748;1260;23299;-84
2023/06/03 14:05:48;;;;;;;2.00;1.10;;;;;;;18.35;37.78;99527.17;273703;1267;22373;-84
2023/06/03 14:11:50;;;;;;;1.10;0.70;;;;;;;18.35;37.31;99521.70;273843;1269;22401;-85
2023/06/03 14:18:03;;;;;;;2.70;1.30;;;;;;;18.41;37.79;99517.20;273337;1267;24237;-84
2023/06/03 14:24:10;;;;;;;2.40;1.00;;;;;;;18.55;37.89;99510.54;271198;1266;23860;-84
2023/06/03 14:30:11;;;;;;;5.60;0.80;;;;;;;18.56;37.58;99508.46;272824;1266;22204;-85
2023/06/03 14:36:12;;;;;;;1.90;0.80;;;;;;;18.44;37.29;99503.16;272953;1268;22407;-84
2023/06/03 14:48:12;;;;;;;3.80;0.90;;;;;;;18.39;37.24;99497.04;264642;1298;546648;-85
2023/06/03 14:54:13;;;;;;;1.70;0.90;;;;;;;18.33;37.23;99494.16;268959;1281;22516;-85
2023/06/03 15:00:14;;;;;;;3.80;0.80;;;;;;;18.22;36.97;99494.21;271317;1279;105985;-84
2023/06/03 15:06:37;;;;;;;4.30;1.50;;;;;;;18.24;37.24;99487.14;269984;1278;22433;-84
2023/06/03 15:12:38;;;;;;;3.60;0.90;;;;;;;18.23;36.92;99481.94;269601;1269;22539;-84
2023/06/03 15:18:39;;;;;;;1.60;0.90;;;;;;;18.12;36.66;99482.14;269398;1279;22588;-85
2023/06/03 15:24:40;;;;;;;2.40;0.90;;;;;;;18.02;36.59;99479.56;271759;1270;22432;-85
2023/06/03 15:30:42;;;;;;;4.50;1.00;;;;;;;17.85;36.57;99475.16;272059;1278;23633;-85
2023/06/03 15:36:43;;;;;;;2.90;0.60;;;;;;;17.77;36.62;99469.47;272058;1270;22431;-84
2023/06/03 15:42:44;;;;;;;4.70;1.20;;;;;;;17.65;36.55;99466.98;272007;1279;23208;-84
2023/06/03 15:48:45;;;;;;;4.70;1.00;;;;;;;17.56;36.82;99460.90;271799;1279;22337;-84
2023/06/03 15:54:47;;;;;;;1.20;0.60;;;;;;;17.51;36.79;99457.15;270980;1278;22777;-85
2023/06/03 16:00:50;;;;;;;1.60;0.80;;;;;;;17.43;36.53;99455.46;271110;1278;22470;-84
2023/06/03 16:06:51;;;;;;;2.00;0.90;;;;;;;17.33;36.52;99455.23;271900;1278;22899;-85
2023/06/03 16:12:52;;;;;;;1.80;0.70;;;;;;;17.27;36.48;99454.18;271632;1268;22412;-85
2023/06/03 16:18:53;;;;;;;3.40;1.00;;;;;;;17.21;36.45;99453.59;271203;1278;22638;-84
2023/06/03 16:24:54;;;;;;;2.30;1.00;;;;;;;17.14;36.34;99450.41;268074;1279;22663;-85
2023/06/03 16:30:55;;;;;;;3.70;1.00;;;;;;;17.12;36.38;99449.73;268298;1266;22623;-84
2023/06/03 16:36:57;;;;;;;2.80;1.10;;;;;;;17.06;36.32;99450.71;267895;1279;24949;-83
2023/06/03 16:42:58;;;;;;;6.10;1.00;;;;;;;16.96;36.18;99447.23;271822;1279;22454;-85
2023/06/03 16:49:01;;;;;;;2.80;1.00;;;;;;;16.90;36.30;99446.08;271866;1279;22332;-83
2023/06/03 16:55:03;;;;;;;2.50;0.90;;;;;;;16.82;36.28;99445.34;272012;1278;22400;-85
2023/06/03 17:01:04;;;;;;;8.50;1.20;;;;;;;16.74;36.56;99449.50;271006;1271;22481;-84
2023/06/03 17:07:05;;;;;;;5.60;1.00;;;;;;;16.69;36.91;99449.06;264268;1278;10001302;-83
2023/06/03 17:13:27;;;;;;;1.80;0.90;;;;;;;16.62;37.43;99450.45;271714;1269;22429;-85
2023/06/03 17:19:28;;;;;;;5.30;1.40;;;;;;;16.54;37.70;99446.16;270344;1278;22684;-84
2023/06/03 17:25:29;;;;;;;5.00;1.40;;;;;;;16.45;37.85;99450.15;271031;1276;23078;-85
2023/06/03 17:31:30;;;;;;;5.70;1.70;;;;;;;16.34;38.15;99450.98;271472;1276;23493;-84
2023/06/03 17:37:32;;;;;;;3.20;1.00;;;;;;;16.24;38.10;99448.10;271848;1276;23934;-86
2023/06/03 17:43:36;;;;;;;4.40;1.50;;;;;;;16.17;38.58;99445.52;270247;1276;22445;-84
2023/06/03 17:49:37;;;;;;;4.90;1.50;;;;;;;16.06;38.68;99442.34;272222;1276;22302;-84
2023/06/03 17:55:38;;;;;;;1.50;0.90;;;;;;;15.96;39.09;99443.63;272175;1276;23617;-86
2023/06/03 18:01:39;;;;;;;3.10;1.10;;;;;;;15.81;39.30;99441.47;272267;1275;22407;-84
2023/06/03 18:07:41;;;;;;;3.40;1.60;;;;;;;15.69;39.49;99445.36;272136;1276;22194;-84
2023/06/03 18:13:42;;;;;;;5.80;1.80;;;;;;;15.54;39.68;99441.36;272007;1276;22241;-84
2023/06/03 18:19:43;;;;;;;5.10;1.70;;;;;;;15.44;39.92;99447.54;273659;1267;22227;-83
2023/06/03 18:25:45;;;;;;;3.40;1.70;;;;;;;15.29;40.25;99453.36;273214;1264;22671;-84
2023/06/03 18:31:46;;;;;;;4.60;1.90;;;;;;;15.13;40.55;99455.09;273650;1254;22438;-83
2023/06/03 18:37:48;;;;;;;2.90;2.10;;;;;;;14.96;40.94;99462.34;273653;1266;22293;-83
2023/06/03 18:43:49;;;;;;;4.50;1.70;;;;;;;14.79;41.24;99467.90;273672;1267;23603;-83
2023/06/03 18:50:10;;;;;;;2.90;1.80;;;;;;;14.60;41.58;99470.45;273813;1267;22257;-83
2023/06/03 18:56:51;;;;;;;3.40;1.40;;;;;;;14.39;42.08;99470.31;273673;1267;22459;-83
2023/06/03 19:02:54;;;;;;;4.20;1.90;;;;;;;14.16;42.52;99478.30;273686;1267;22235;-83
2023/06/03 19:09:20;;;;;;;7.40;3.30;;;;;;;13.95;43.05;99478.60;273514;1267;22477;-85
2023/06/03 19:15:33;;;;;;;7.80;4.40;;;;;;;13.78;43.52;99487.54;271432;1267;22562;-83
2023/06/03 19:21:35;;;;;;;10.30;4.40;;;;;;;13.62;43.84;99490.66;272832;1251;22376;-83
2023/06/03 19:27:38;;;;;;;5.50;3.40;;;;;;;13.48;44.19;99492.13;273290;1267;22267;-83
2023/06/03 19:34:01;;;;;;;9.50;4.10;;;;;;;13.38;44.53;99497.80;273707;1267;22375;-83
2023/06/03 19:40:09;;;;;;;5.90;3.80;;;;;;;13.27;44.91;99504.53;273503;1267;22419;-83
2023/06/03 19:46:10;;;;;;;6.10;3.40;;;;;;;13.18;45.28;99510.74;273827;1266;22172;-82
2023/06/03 19:52:11;;;;;;;8.30;3.20;;;;;;;13.10;45.58;99514.75;273743;1267;22464;-83
2023/06/03 19:58:13;;;;;;;5.30;2.30;;;;;;;12.97;46.08;99525.98;273699;1261;22399;-82
2023/06/03 20:04:14;;;;;;;4.30;2.50;;;;;;;12.78;46.64;99528.61;273783;1267;22490;-82
2023/06/03 20:10:15;;;;;;;6.00;3.30;;;;;;;12.61;47.13;99532.27;273842;1266;22401;-82
2023/06/03 20:16:19;;;;;;;5.30;2.70;;;;;;;12.43;47.81;99538.17;273309;1267;22511;-82
2023/06/03 20:22:21;;;;;;;8.00;2.80;;;;;;;12.23;49.97;99541.92;272482;1267;22227;-82
2023/06/03 20:29:03;;;;;;;6.90;2.30;;;;;;;11.96;52.93;99541.09;273790;1267;23611;-83
2023/06/03 20:35:05;;;;;;;7.00;2.50;;;;;;;11.66;53.07;99541.88;271962;1264;22748;-83
2023/06/03 20:41:37;;;;;;;6.10;2.00;;;;;;;11.45;53.81;99545.52;273709;1267;23682;-82
2023/06/03 20:47:39;;;;;;;4.60;2.50;;;;;;;11.26;53.55;99550.36;273687;1267;22411;-82
2023/06/03 20:53:40;;;;;;;3.60;2.10;;;;;;;11.09;56.28;99553.05;273729;1266;22416;-84
2023/06/03 20:59:41;;;;;;;9.10;2.80;;;;;;;10.88;57.94;99556.58;273538;1266;22466;-82
2023/06/03 21:05:42;;;;;;;8.70;4.00;;;;;;;10.63;57.66;99557.65;273640;1261;22187;-84
2023/06/03 21:11:48;;;;;;;8.80;4.20;;;;;;;10.40;57.59;99558.60;273090;1266;22364;-82
2023/06/03 21:17:49;;;;;;;9.50;4.50;;;;;;;10.18;57.41;99559.21;273826;1265;22449;-82
2023/06/03 21:23:50;;;;;;;6.10;3.90;;;;;;;9.95;58.00;99549.92;273743;1267;22446;-82
2023/06/03 21:30:06;;;;;;;6.60;4.00;;;;;;;9.74;58.90;99546.09;273806;1267;22237;-82
2023/06/03 21:36:07;;;;;;;11.10;5.30;;;;;;;9.55;60.48;99542.28;273696;1258;23315;-82
2023/06/03 21:42:08;;;;;;;9.30;4.90;;;;;;;9.35;60.96;99543.92;273865;1267;23681;-82
2023/06/03 21:48:10;;;;;;;9.80;5.00;;;;;;;9.22;62.09;99551.47;273755;1257;22391;-82
2023/06/03 21:54:11;;;;;;;11.30;5.80;;;;;;;9.13;62.32;99548.58;273105;1255;23589;-82
2023/06/03 22:00:13;;;;;;;7.60;4.30;;;;;;;9.06;63.17;99542.17;273602;1266;22384;-83
2023/06/03 22:06:14;;;;;;;8.60;5.30;;;;;;;8.97;64.60;99544.29;273799;1267;22425;-81
2023/06/03 22:12:17;;;;;;;17.70;7.20;;;;;;;8.82;65.00;99541.47;273746;1266;22441;-82
2023/06/03 22:18:18;;;;;;;14.70;7.00;;;;;;;8.66;65.21;99546.88;273890;1257;22494;-82
2023/06/03 22:24:19;;;;;;;13.30;6.80;;;;;;;8.51;65.57;99547.79;272969;1267;23669;-83
2023/06/03 22:30:20;;;;;;;9.00;5.90;;;;;;;8.32;65.67;99544.11;273791;1268;22407;-82
2023/06/03 22:36:39;;;;;;;10.30;6.50;;;;;;;8.13;66.58;99539.95;273743;1255;22546;-81
2023/06/03 22:42:40;;;;;;;14.00;7.20;;;;;;;7.93;66.55;99535.70;270600;1267;22546;-82
2023/06/03 22:48:45;;;;;;;13.30;8.00;;;;;;;7.77;66.85;99533.66;272423;1256;22383;-82
2023/06/03 22:54:46;;;;;;;13.20;7.20;;;;;;;7.69;67.71;99529.20;273850;1255;22245;-81
2023/06/03 23:00:54;;;;;;;13.50;6.70;;;;;;;7.61;68.88;99526.46;271686;1255;22546;-82
2023/06/03 23:06:55;;;;;;;13.10;6.80;;;;;;;7.49;69.96;99528.97;270185;1267;23329;-83
2023/06/03 23:12:56;;;;;;;13.10;7.50;;;;;;;7.36;70.16;99532.61;272666;1267;22454;-82
2023/06/03 23:18:57;;;;;;;15.20;7.10;;;;;;;7.27;69.98;99532.60;273815;1267;22201;-82
2023/06/03 23:24:58;;;;;;;13.10;5.90;;;;;;;7.22;70.26;99534.41;273888;1257;23065;-82
2023/06/03 23:31:00;;;;;;;13.20;6.80;;;;;;;7.21;70.66;99533.20;273871;1257;22703;-82
2023/06/03 23:37:01;;;;;;;10.50;4.70;;;;;;;7.12;70.89;99529.79;273895;1268;22376;-83
2023/06/03 23:43:05;;;;;;;7.60;4.50;;;;;;;6.97;71.07;99526.02;273945;1256;22419;-81
2023/06/03 23:49:06;;;;;;;11.20;5.20;;;;;;;6.89;72.34;99524.80;273793;1267;22765;-81
2023/06/03 23:55:07;;;;;;;10.80;5.50;;;;;;;6.83;72.56;99517.92;271312;1267;24193;-83
